sensor_id;sensor_type;location;lat;lon;timestamp;P1;durP1;ratioP1;P2;durP2;ratioP2
62475;SDS011;50739;45.670;11.936;2023-02-28T00:00:45;9.60;;;6.07;;
62475;SDS011;50739;45.670;11.936;2023-02-28T00:05:49;9.17;;;6.07;;
62475;SDS011;50739;45.670;11.936;2023-02-28T00:10:51;8.57;;;5.80;;
62475;SDS011;50739;45.670;11.936;2023-02-28T00:15:59;8.98;;;5.72;;
62475;SDS011;50739;45.670;11.936;2023-02-28T00:21:03;8.38;;;5.93;;
62475;SDS011;50739;45.670;11.936;2023-02-28T00:26:05;8.35;;;5.35;;
62475;SDS011;50739;45.670;11.936;2023-02-28T00:31:07;7.82;;;5.40;;
62475;SDS011;50739;45.670;11.936;2023-02-28T00:36:10;6.18;;;4.70;;
62475;SDS011;50739;45.670;11.936;2023-02-28T00:41:13;7.50;;;5.32;;
62475;SDS011;50739;45.670;11.936;2023-02-28T00:46:15;6.90;;;5.13;;
62475;SDS011;50739;45.670;11.936;2023-02-28T00:51:18;7.03;;;5.00;;
62475;SDS011;50739;45.670;11.936;2023-02-28T00:56:20;9.10;;;5.07;;
62475;SDS011;50739;45.670;11.936;2023-02-28T01:01:22;6.60;;;4.90;;
62475;SDS011;50739;45.670;11.936;2023-02-28T01:06:25;6.88;;;5.00;;
62475;SDS011;50739;45.670;11.936;2023-02-28T01:11:27;6.38;;;4.68;;
62475;SDS011;50739;45.670;11.936;2023-02-28T01:16:29;8.57;;;5.40;;
62475;SDS011;50739;45.670;11.936;2023-02-28T01:21:33;7.18;;;5.22;;
62475;SDS011;50739;45.670;11.936;2023-02-28T01:26:35;7.20;;;4.87;;
62475;SDS011;50739;45.670;11.936;2023-02-28T01:31:37;6.77;;;4.87;;
62475;SDS011;50739;45.670;11.936;2023-02-28T01:36:41;6.87;;;5.00;;
62475;SDS011;50739;45.670;11.936;2023-02-28T01:41:43;6.75;;;4.60;;
62475;SDS011;50739;45.670;11.936;2023-02-28T01:46:45;5.85;;;4.78;;
62475;SDS011;50739;45.670;11.936;2023-02-28T01:51:49;6.57;;;4.65;;
62475;SDS011;50739;45.670;11.936;2023-02-28T01:56:55;6.97;;;4.80;;
62475;SDS011;50739;45.670;11.936;2023-02-28T02:02:00;6.03;;;4.77;;
62475;SDS011;50739;45.670;11.936;2023-02-28T02:07:04;9.77;;;5.40;;
62475;SDS011;50739;45.670;11.936;2023-02-28T02:12:08;6.97;;;5.07;;
62475;SDS011;50739;45.670;11.936;2023-02-28T02:17:20;7.55;;;5.47;;
62475;SDS011;50739;45.670;11.936;2023-02-28T02:22:36;9.48;;;5.35;;
62475;SDS011;50739;45.670;11.936;2023-02-28T02:27:59;7.85;;;5.18;;
62475;SDS011;50739;45.670;11.936;2023-02-28T02:33:30;8.13;;;5.40;;
62475;SDS011;50739;45.670;11.936;2023-02-28T02:39:02;7.17;;;5.20;;
62475;SDS011;50739;45.670;11.936;2023-02-28T02:44:10;7.72;;;5.32;;
62475;SDS011;50739;45.670;11.936;2023-02-28T02:49:18;7.85;;;5.45;;
62475;SDS011;50739;45.670;11.936;2023-02-28T02:54:26;8.18;;;6.07;;
62475;SDS011;50739;45.670;11.936;2023-02-28T02:59:31;8.07;;;6.05;;
62475;SDS011;50739;45.670;11.936;2023-02-28T03:04:36;8.23;;;5.53;;
62475;SDS011;50739;45.670;11.936;2023-02-28T03:09:50;7.50;;;5.65;;
62475;SDS011;50739;45.670;11.936;2023-02-28T03:14:56;7.75;;;5.65;;
62475;SDS011;50739;45.670;11.936;2023-02-28T03:20:07;7.35;;;5.38;;
62475;SDS011;50739;45.670;11.936;2023-02-28T03:25:20;6.75;;;5.00;;
62475;SDS011;50739;45.670;11.936;2023-02-28T03:30:27;7.85;;;5.22;;
62475;SDS011;50739;45.670;11.936;2023-02-28T03:35:35;7.70;;;5.50;;
62475;SDS011;50739;45.670;11.936;2023-02-28T03:40:43;9.07;;;5.85;;
62475;SDS011;50739;45.670;11.936;2023-02-28T03:45:50;6.20;;;5.00;;
62475;SDS011;50739;45.670;11.936;2023-02-28T03:50:53;8.57;;;5.30;;
62475;SDS011;50739;45.670;11.936;2023-02-28T03:56:01;7.45;;;5.07;;
62475;SDS011;50739;45.670;11.936;2023-02-28T04:01:09;7.30;;;5.00;;
62475;SDS011;50739;45.670;11.936;2023-02-28T04:06:15;7.57;;;5.30;;
62475;SDS011;50739;45.670;11.936;2023-02-28T04:11:21;7.22;;;5.20;;
62475;SDS011;50739;45.670;11.936;2023-02-28T04:16:25;7.27;;;4.97;;
62475;SDS011;50739;45.670;11.936;2023-02-28T04:21:27;6.93;;;5.10;;
62475;SDS011;50739;45.670;11.936;2023-02-28T04:26:31;9.85;;;5.15;;
62475;SDS011;50739;45.670;11.936;2023-02-28T04:31:33;7.60;;;5.63;;
62475;SDS011;50739;45.670;11.936;2023-02-28T04:36:35;6.47;;;4.70;;
62475;SDS011;50739;45.670;11.936;2023-02-28T04:41:38;8.37;;;5.23;;
62475;SDS011;50739;45.670;11.936;2023-02-28T04:46:40;8.23;;;5.30;;
62475;SDS011;50739;45.670;11.936;2023-02-28T04:51:42;8.90;;;5.43;;
62475;SDS011;50739;45.670;11.936;2023-02-28T04:56:46;7.95;;;5.43;;
62475;SDS011;50739;45.670;11.936;2023-02-28T05:01:49;9.30;;;5.43;;
62475;SDS011;50739;45.670;11.936;2023-02-28T05:06:51;9.13;;;5.45;;
62475;SDS011;50739;45.670;11.936;2023-02-28T05:11:55;8.05;;;5.35;;
62475;SDS011;50739;45.670;11.936;2023-02-28T05:16:57;7.70;;;5.35;;
62475;SDS011;50739;45.670;11.936;2023-02-28T05:21:59;7.85;;;5.57;;
62475;SDS011;50739;45.670;11.936;2023-02-28T05:27:02;7.75;;;5.40;;
62475;SDS011;50739;45.670;11.936;2023-02-28T05:32:04;9.25;;;5.68;;
62475;SDS011;50739;45.670;11.936;2023-02-28T05:37:06;9.43;;;6.20;;
62475;SDS011;50739;45.670;11.936;2023-02-28T05:42:13;10.25;;;6.05;;
62475;SDS011;50739;45.670;11.936;2023-02-28T05:47:15;9.80;;;5.72;;
62475;SDS011;50739;45.670;11.936;2023-02-28T05:52:17;10.35;;;6.18;;
62475;SDS011;50739;45.670;11.936;2023-02-28T05:57:20;8.80;;;5.77;;
62475;SDS011;50739;45.670;11.936;2023-02-28T06:02:22;10.85;;;6.38;;
62475;SDS011;50739;45.670;11.936;2023-02-28T06:07:24;10.15;;;6.10;;
62475;SDS011;50739;45.670;11.936;2023-02-28T06:12:27;12.70;;;6.65;;
62475;SDS011;50739;45.670;11.936;2023-02-28T06:17:29;12.27;;;9.50;;
62475;SDS011;50739;45.670;11.936;2023-02-28T06:22:31;9.75;;;6.22;;
62475;SDS011;50739;45.670;11.936;2023-02-28T06:27:34;11.18;;;6.60;;
62475;SDS011;50739;45.670;11.936;2023-02-28T06:32:36;11.13;;;6.63;;
62475;SDS011;50739;45.670;11.936;2023-02-28T06:37:38;13.30;;;7.37;;
62475;SDS011;50739;45.670;11.936;2023-02-28T06:42:41;10.35;;;6.57;;
62475;SDS011;50739;45.670;11.936;2023-02-28T06:47:43;10.85;;;6.32;;
62475;SDS011;50739;45.670;11.936;2023-02-28T06:52:45;9.70;;;6.32;;
62475;SDS011;50739;45.670;11.936;2023-02-28T06:57:48;12.15;;;6.70;;
62475;SDS011;50739;45.670;11.936;2023-02-28T07:02:51;10.05;;;6.43;;
62475;SDS011;50739;45.670;11.936;2023-02-28T07:07:54;9.80;;;6.43;;
62475;SDS011;50739;45.670;11.936;2023-02-28T07:12:58;11.88;;;7.35;;
62475;SDS011;50739;45.670;11.936;2023-02-28T07:18:00;10.88;;;6.45;;
62475;SDS011;50739;45.670;11.936;2023-02-28T07:23:03;11.57;;;6.43;;
62475;SDS011;50739;45.670;11.936;2023-02-28T07:28:06;12.13;;;6.47;;
62475;SDS011;50739;45.670;11.936;2023-02-28T07:33:08;10.52;;;6.50;;
62475;SDS011;50739;45.670;11.936;2023-02-28T07:38:10;11.25;;;6.75;;
62475;SDS011;50739;45.670;11.936;2023-02-28T07:43:15;12.02;;;6.88;;
62475;SDS011;50739;45.670;11.936;2023-02-28T07:48:16;13.83;;;6.80;;
62475;SDS011;50739;45.670;11.936;2023-02-28T07:53:18;11.38;;;6.47;;
62475;SDS011;50739;45.670;11.936;2023-02-28T07:58:21;14.48;;;6.32;;
62475;SDS011;50739;45.670;11.936;2023-02-28T08:03:24;13.68;;;6.63;;
62475;SDS011;50739;45.670;11.936;2023-02-28T08:08:26;11.63;;;6.10;;
62475;SDS011;50739;45.670;11.936;2023-02-28T08:13:32;10.40;;;6.13;;
62475;SDS011;50739;45.670;11.936;2023-02-28T08:18:34;12.10;;;6.07;;
62475;SDS011;50739;45.670;11.936;2023-02-28T08:23:36;10.57;;;6.60;;
62475;SDS011;50739;45.670;11.936;2023-02-28T08:28:40;11.95;;;6.65;;
62475;SDS011;50739;45.670;11.936;2023-02-28T08:33:42;11.35;;;6.45;;
62475;SDS011;50739;45.670;11.936;2023-02-28T08:38:45;9.93;;;6.17;;
62475;SDS011;50739;45.670;11.936;2023-02-28T08:43:48;11.40;;;6.10;;
62475;SDS011;50739;45.670;11.936;2023-02-28T08:48:51;11.93;;;6.50;;
62475;SDS011;50739;45.670;11.936;2023-02-28T08:53:54;9.77;;;6.00;;
62475;SDS011;50739;45.670;11.936;2023-02-28T08:58:58;15.25;;;6.60;;
62475;SDS011;50739;45.670;11.936;2023-02-28T09:04:00;9.80;;;5.35;;
62475;SDS011;50739;45.670;11.936;2023-02-28T09:09:02;9.85;;;5.50;;
62475;SDS011;50739;45.670;11.936;2023-02-28T09:14:07;12.45;;;6.38;;
62475;SDS011;50739;45.670;11.936;2023-02-28T09:19:10;9.10;;;5.60;;
62475;SDS011;50739;45.670;11.936;2023-02-28T09:24:12;8.10;;;5.45;;
62475;SDS011;50739;45.670;11.936;2023-02-28T09:29:16;10.23;;;6.13;;
62475;SDS011;50739;45.670;11.936;2023-02-28T09:34:18;9.40;;;5.50;;
62475;SDS011;50739;45.670;11.936;2023-02-28T09:39:20;10.60;;;6.15;;
62475;SDS011;50739;45.670;11.936;2023-02-28T09:44:26;11.60;;;6.13;;
62475;SDS011;50739;45.670;11.936;2023-02-28T09:49:34;12.20;;;5.90;;
62475;SDS011;50739;45.670;11.936;2023-02-28T09:54:40;10.77;;;5.63;;
62475;SDS011;50739;45.670;11.936;2023-02-28T09:59:48;10.17;;;5.50;;
62475;SDS011;50739;45.670;11.936;2023-02-28T10:05:15;9.82;;;5.53;;
62475;SDS011;50739;45.670;11.936;2023-02-28T10:10:21;8.93;;;5.60;;
62475;SDS011;50739;45.670;11.936;2023-02-28T10:15:29;9.75;;;5.53;;
62475;SDS011;50739;45.670;11.936;2023-02-28T10:20:33;8.77;;;4.90;;
62475;SDS011;50739;45.670;11.936;2023-02-28T10:25:38;7.72;;;4.90;;
62475;SDS011;50739;45.670;11.936;2023-02-28T10:30:42;8.93;;;4.88;;
62475;SDS011;50739;45.670;11.936;2023-02-28T10:35:47;10.07;;;5.10;;
62475;SDS011;50739;45.670;11.936;2023-02-28T10:40:50;8.35;;;4.78;;
62475;SDS011;50739;45.670;11.936;2023-02-28T10:45:55;8.43;;;4.75;;
62475;SDS011;50739;45.670;11.936;2023-02-28T10:50:59;8.40;;;4.78;;
62475;SDS011;50739;45.670;11.936;2023-02-28T10:56:04;8.23;;;4.63;;
62475;SDS011;50739;45.670;11.936;2023-02-28T11:01:18;8.98;;;4.90;;
62475;SDS011;50739;45.670;11.936;2023-02-28T11:06:21;8.38;;;5.35;;
62475;SDS011;50739;45.670;11.936;2023-02-28T11:11:27;8.35;;;5.20;;
62475;SDS011;50739;45.670;11.936;2023-02-28T11:16:33;6.85;;;4.28;;
62475;SDS011;50739;45.670;11.936;2023-02-28T11:21:36;8.13;;;4.23;;
62475;SDS011;50739;45.670;11.936;2023-02-28T11:26:41;8.00;;;4.82;;
62475;SDS011;50739;45.670;11.936;2023-02-28T11:31:45;8.67;;;4.67;;
62475;SDS011;50739;45.670;11.936;2023-02-28T11:37:04;8.05;;;4.45;;
62475;SDS011;50739;45.670;11.936;2023-02-28T11:42:15;6.53;;;3.90;;
62475;SDS011;50739;45.670;11.936;2023-02-28T11:47:36;6.63;;;4.00;;
62475;SDS011;50739;45.670;11.936;2023-02-28T11:52:45;7.53;;;4.38;;
62475;SDS011;50739;45.670;11.936;2023-02-28T11:57:57;6.57;;;4.63;;
62475;SDS011;50739;45.670;11.936;2023-02-28T12:03:14;7.80;;;4.75;;
62475;SDS011;50739;45.670;11.936;2023-02-28T12:08:32;8.20;;;4.77;;
62475;SDS011;50739;45.670;11.936;2023-02-28T12:13:58;6.13;;;4.15;;
62475;SDS011;50739;45.670;11.936;2023-02-28T12:19:21;6.53;;;4.20;;
62475;SDS011;50739;45.670;11.936;2023-02-28T12:24:30;8.18;;;4.30;;
62475;SDS011;50739;45.670;11.936;2023-02-28T12:29:50;8.50;;;4.57;;
62475;SDS011;50739;45.670;11.936;2023-02-28T12:35:00;7.28;;;4.88;;
62475;SDS011;50739;45.670;11.936;2023-02-28T12:40:07;8.50;;;4.77;;
62475;SDS011;50739;45.670;11.936;2023-02-28T12:45:16;8.18;;;4.88;;
62475;SDS011;50739;45.670;11.936;2023-02-28T12:50:22;7.18;;;4.82;;
62475;SDS011;50739;45.670;11.936;2023-02-28T12:55:27;8.07;;;4.47;;
62475;SDS011;50739;45.670;11.936;2023-02-28T13:00:34;8.25;;;4.90;;
62475;SDS011;50739;45.670;11.936;2023-02-28T13:11:30;7.38;;;4.97;;
62475;SDS011;50739;45.670;11.936;2023-02-28T13:16:48;7.35;;;4.85;;
62475;SDS011;50739;45.670;11.936;2023-02-28T13:21:55;6.95;;;5.05;;
62475;SDS011;50739;45.670;11.936;2023-02-28T13:27:12;7.95;;;5.15;;
62475;SDS011;50739;45.670;11.936;2023-02-28T13:32:40;7.30;;;4.85;;
62475;SDS011;50739;45.670;11.936;2023-02-28T13:37:44;7.50;;;4.67;;
62475;SDS011;50739;45.670;11.936;2023-02-28T13:42:49;8.73;;;5.10;;
62475;SDS011;50739;45.670;11.936;2023-02-28T13:47:52;9.60;;;5.30;;
62475;SDS011;50739;45.670;11.936;2023-02-28T13:53:01;9.10;;;4.75;;
62475;SDS011;50739;45.670;11.936;2023-02-28T13:58:27;7.22;;;4.47;;
62475;SDS011;50739;45.670;11.936;2023-02-28T14:03:43;6.53;;;4.80;;
62475;SDS011;50739;45.670;11.936;2023-02-28T14:09:21;7.60;;;4.93;;
62475;SDS011;50739;45.670;11.936;2023-02-28T14:19:55;7.85;;;4.88;;
62475;SDS011;50739;45.670;11.936;2023-02-28T14:36:03;6.70;;;4.38;;
62475;SDS011;50739;45.670;11.936;2023-02-28T14:41:14;6.90;;;4.30;;
62475;SDS011;50739;45.670;11.936;2023-02-28T14:46:19;7.45;;;4.10;;
62475;SDS011;50739;45.670;11.936;2023-02-28T14:51:22;6.32;;;4.28;;
62475;SDS011;50739;45.670;11.936;2023-02-28T14:56:27;7.13;;;4.78;;
62475;SDS011;50739;45.670;11.936;2023-02-28T15:01:34;6.40;;;4.40;;
62475;SDS011;50739;45.670;11.936;2023-02-28T15:06:36;7.80;;;4.70;;
62475;SDS011;50739;45.670;11.936;2023-02-28T15:11:39;8.00;;;4.40;;
62475;SDS011;50739;45.670;11.936;2023-02-28T15:16:42;8.32;;;4.80;;
62475;SDS011;50739;45.670;11.936;2023-02-28T15:21:47;6.87;;;4.30;;
62475;SDS011;50739;45.670;11.936;2023-02-28T15:26:54;6.75;;;4.55;;
62475;SDS011;50739;45.670;11.936;2023-02-28T15:32:00;7.13;;;4.30;;
62475;SDS011;50739;45.670;11.936;2023-02-28T15:37:06;6.60;;;4.70;;
62475;SDS011;50739;45.670;11.936;2023-02-28T15:42:29;7.72;;;4.72;;
62475;SDS011;50739;45.670;11.936;2023-02-28T15:47:35;6.88;;;4.30;;
62475;SDS011;50739;45.670;11.936;2023-02-28T15:52:38;7.45;;;4.22;;
62475;SDS011;50739;45.670;11.936;2023-02-28T15:57:44;7.38;;;4.65;;
62475;SDS011;50739;45.670;11.936;2023-02-28T16:02:47;6.70;;;4.43;;
62475;SDS011;50739;45.670;11.936;2023-02-28T16:07:49;7.95;;;4.45;;
62475;SDS011;50739;45.670;11.936;2023-02-28T16:12:54;7.50;;;5.03;;
62475;SDS011;50739;45.670;11.936;2023-02-28T16:17:57;8.33;;;4.63;;
62475;SDS011;50739;45.670;11.936;2023-02-28T16:22:59;9.23;;;4.60;;
62475;SDS011;50739;45.670;11.936;2023-02-28T16:28:04;9.50;;;5.07;;
62475;SDS011;50739;45.670;11.936;2023-02-28T16:33:13;10.23;;;6.63;;
62475;SDS011;50739;45.670;11.936;2023-02-28T16:38:15;9.00;;;5.63;;
62475;SDS011;50739;45.670;11.936;2023-02-28T16:43:19;8.97;;;5.80;;
62475;SDS011;50739;45.670;11.936;2023-02-28T16:48:24;9.10;;;5.78;;
62475;SDS011;50739;45.670;11.936;2023-02-28T16:53:26;10.00;;;6.20;;
62475;SDS011;50739;45.670;11.936;2023-02-28T16:58:30;13.70;;;8.05;;
62475;SDS011;50739;45.670;11.936;2023-02-28T17:03:31;14.55;;;7.35;;
62475;SDS011;50739;45.670;11.936;2023-02-28T17:08:34;10.30;;;6.57;;
62475;SDS011;50739;45.670;11.936;2023-02-28T17:13:37;10.75;;;6.30;;
62475;SDS011;50739;45.670;11.936;2023-02-28T17:18:39;11.98;;;7.72;;
62475;SDS011;50739;45.670;11.936;2023-02-28T17:23:41;12.63;;;7.70;;
62475;SDS011;50739;45.670;11.936;2023-02-28T17:28:45;13.27;;;7.97;;
62475;SDS011;50739;45.670;11.936;2023-02-28T17:33:47;11.73;;;7.63;;
62475;SDS011;50739;45.670;11.936;2023-02-28T17:38:49;15.88;;;9.63;;
62475;SDS011;50739;45.670;11.936;2023-02-28T17:43:54;20.90;;;9.53;;
62475;SDS011;50739;45.670;11.936;2023-02-28T17:48:56;17.15;;;10.15;;
62475;SDS011;50739;45.670;11.936;2023-02-28T17:53:58;18.67;;;11.37;;
62475;SDS011;50739;45.670;11.936;2023-02-28T17:59:02;17.47;;;10.70;;
62475;SDS011;50739;45.670;11.936;2023-02-28T18:04:04;21.20;;;11.23;;
62475;SDS011;50739;45.670;11.936;2023-02-28T18:09:06;21.42;;;11.43;;
62475;SDS011;50739;45.670;11.936;2023-02-28T18:14:10;18.52;;;11.35;;
62475;SDS011;50739;45.670;11.936;2023-02-28T18:19:12;18.05;;;11.65;;
62475;SDS011;50739;45.670;11.936;2023-02-28T18:24:16;20.20;;;11.07;;
62475;SDS011;50739;45.670;11.936;2023-02-28T18:29:21;19.20;;;10.88;;
62475;SDS011;50739;45.670;11.936;2023-02-28T18:34:26;21.70;;;12.05;;
62475;SDS011;50739;45.670;11.936;2023-02-28T18:39:29;18.40;;;11.20;;
62475;SDS011;50739;45.670;11.936;2023-02-28T18:44:35;18.05;;;11.45;;
62475;SDS011;50739;45.670;11.936;2023-02-28T18:49:37;19.17;;;11.73;;
62475;SDS011;50739;45.670;11.936;2023-02-28T18:54:39;17.48;;;11.23;;
62475;SDS011;50739;45.670;11.936;2023-02-28T18:59:42;21.17;;;12.70;;
62475;SDS011;50739;45.670;11.936;2023-02-28T19:04:44;21.45;;;13.32;;
62475;SDS011;50739;45.670;11.936;2023-02-28T19:09:46;18.05;;;12.20;;
62475;SDS011;50739;45.670;11.936;2023-02-28T19:14:50;19.33;;;12.33;;
62475;SDS011;50739;45.670;11.936;2023-02-28T19:19:52;20.63;;;13.03;;
62475;SDS011;50739;45.670;11.936;2023-02-28T19:24:54;19.90;;;12.68;;
62475;SDS011;50739;45.670;11.936;2023-02-28T19:29:57;19.88;;;12.18;;
62475;SDS011;50739;45.670;11.936;2023-02-28T19:34:59;20.13;;;12.65;;
62475;SDS011;50739;45.670;11.936;2023-02-28T19:40:01;20.60;;;12.83;;
62475;SDS011;50739;45.670;11.936;2023-02-28T19:45:06;22.13;;;14.38;;
62475;SDS011;50739;45.670;11.936;2023-02-28T19:50:13;19.60;;;12.10;;
62475;SDS011;50739;45.670;11.936;2023-02-28T19:55:16;20.57;;;12.63;;
62475;SDS011;50739;45.670;11.936;2023-02-28T20:00:20;21.27;;;12.43;;
62475;SDS011;50739;45.670;11.936;2023-02-28T20:05:22;24.52;;;13.18;;
62475;SDS011;50739;45.670;11.936;2023-02-28T20:10:24;21.80;;;13.65;;
62475;SDS011;50739;45.670;11.936;2023-02-28T20:15:27;21.63;;;12.77;;
62475;SDS011;50739;45.670;11.936;2023-02-28T20:20:29;22.23;;;12.25;;
62475;SDS011;50739;45.670;11.936;2023-02-28T20:25:37;16.10;;;10.07;;
62475;SDS011;50739;45.670;11.936;2023-02-28T20:30:41;12.67;;;8.43;;
62475;SDS011;50739;45.670;11.936;2023-02-28T20:35:43;13.07;;;7.90;;
62475;SDS011;50739;45.670;11.936;2023-02-28T20:40:45;12.82;;;7.22;;
62475;SDS011;50739;45.670;11.936;2023-02-28T20:45:51;13.52;;;7.90;;
62475;SDS011;50739;45.670;11.936;2023-02-28T20:50:54;12.93;;;8.18;;
62475;SDS011;50739;45.670;11.936;2023-02-28T20:55:57;13.00;;;7.78;;
62475;SDS011;50739;45.670;11.936;2023-02-28T21:01:03;13.53;;;7.80;;
62475;SDS011;50739;45.670;11.936;2023-02-28T21:06:15;12.03;;;6.73;;
62475;SDS011;50739;45.670;11.936;2023-02-28T21:11:19;13.48;;;7.88;;
62475;SDS011;50739;45.670;11.936;2023-02-28T21:16:24;13.50;;;8.33;;
62475;SDS011;50739;45.670;11.936;2023-02-28T21:21:28;14.23;;;7.78;;
62475;SDS011;50739;45.670;11.936;2023-02-28T21:26:32;13.77;;;7.72;;
62475;SDS011;50739;45.670;11.936;2023-02-28T21:31:35;11.82;;;7.13;;
62475;SDS011;50739;45.670;11.936;2023-02-28T21:36:38;12.43;;;7.60;;
62475;SDS011;50739;45.670;11.936;2023-02-28T21:41:44;12.63;;;7.60;;
62475;SDS011;50739;45.670;11.936;2023-02-28T21:46:49;12.85;;;7.28;;
62475;SDS011;50739;45.670;11.936;2023-02-28T21:51:53;13.87;;;7.40;;
62475;SDS011;50739;45.670;11.936;2023-02-28T21:56:55;11.38;;;7.38;;
62475;SDS011;50739;45.670;11.936;2023-02-28T22:02:00;11.03;;;6.87;;
62475;SDS011;50739;45.670;11.936;2023-02-28T22:07:04;12.38;;;6.75;;
62475;SDS011;50739;45.670;11.936;2023-02-28T22:12:06;11.77;;;6.72;;
62475;SDS011;50739;45.670;11.936;2023-02-28T22:17:09;12.95;;;7.68;;
62475;SDS011;50739;45.670;11.936;2023-02-28T22:22:11;13.40;;;7.60;;
62475;SDS011;50739;45.670;11.936;2023-02-28T22:27:13;14.03;;;8.13;;
62475;SDS011;50739;45.670;11.936;2023-02-28T22:32:16;14.68;;;8.30;;
62475;SDS011;50739;45.670;11.936;2023-02-28T22:37:19;13.43;;;8.30;;
62475;SDS011;50739;45.670;11.936;2023-02-28T22:42:20;14.00;;;8.15;;
62475;SDS011;50739;45.670;11.936;2023-02-28T22:47:24;16.63;;;8.98;;
62475;SDS011;50739;45.670;11.936;2023-02-28T22:52:26;15.57;;;8.75;;
62475;SDS011;50739;45.670;11.936;2023-02-28T22:57:28;15.70;;;8.27;;
62475;SDS011;50739;45.670;11.936;2023-02-28T23:02:31;15.48;;;8.25;;
62475;SDS011;50739;45.670;11.936;2023-02-28T23:07:33;12.57;;;8.02;;
62475;SDS011;50739;45.670;11.936;2023-02-28T23:12:35;14.98;;;8.13;;
62475;SDS011;50739;45.670;11.936;2023-02-28T23:17:38;13.23;;;8.15;;
62475;SDS011;50739;45.670;11.936;2023-02-28T23:22:40;11.38;;;7.10;;
62475;SDS011;50739;45.670;11.936;2023-02-28T23:27:49;13.48;;;7.57;;
62475;SDS011;50739;45.670;11.936;2023-02-28T23:32:52;12.57;;;7.70;;
62475;SDS011;50739;45.670;11.936;2023-02-28T23:37:54;14.30;;;7.90;;
62475;SDS011;50739;45.670;11.936;2023-02-28T23:42:57;14.50;;;7.85;;
62475;SDS011;50739;45.670;11.936;2023-02-28T23:48:01;13.98;;;7.85;;
62475;SDS011;50739;45.670;11.936;2023-02-28T23:53:03;14.10;;;8.20;;
62475;SDS011;50739;45.670;11.936;2023-02-28T23:58:06;13.23;;;8.17;;
